Other Surface Observations
Issued by NWS Great Falls, MT

Home | Current Version | Previous Version | Text Only | Print | Product List | Glossary On
Versions: 1 2 3 4 5 6 7 8 9 10 11 12 13 14 15 16 17 18 19 20 21 22 23 24 25 26 27 28 29 30 31 32 33 34 35 36 37 38 39 40 41 42 43 44 45 46 47 48 49 50
000
SXUS55 KTFX 190206
OSOTFX

AREA AWOS OBSERVATIONS
NATIONAL WEATHER SERVICE GREAT FALLS MT
0805 PM MDT Fri Apr 18 2014

METAR K1S3 190200Z AUTO 30014G24KT 8SM 07/04 A2980
METAR K38S 190200Z AUTO 00000KT 10SM 06/M13 A2998
METAR K6S0 190200Z AUTO 24025G34KT 10SM 07/M12 A2984
METAR K6S5 190200Z AUTO 25005KT 10SM 09/M13 A2997
METAR K79S 190200Z AUTO 23015G22KT 09/M09 A2978
METAR K88M 190200Z AUTO 19008KT 10SM 08/M02
METAR KEKS 190200Z AUTO 01004KT 10SM 07/M14 A3003
METAR KPO1 190200Z AUTO 00000KT M1/4SM 08/08 A2968
METAR KPWD 190200Z AUTO 24004KT 7SM 06/05 A2965
METAR KS59 190200Z AUTO 11007KT 10SM 07/M02 A2996
METAR KS71 190200Z AUTO 26016G24KT 10SM 09/M07 A2969



USA.gov is the U.S. government's official web portal to all federal, state and local government web resources and services.